createdAt,value
2023-05-15T00:00:18.695Z,18.64
2023-05-15T00:02:20.789Z,18.69
2023-05-15T00:04:23.218Z,18.63
2023-05-15T00:06:25.490Z,18.68
2023-05-15T00:08:27.503Z,18.65
2023-05-15T00:10:29.495Z,18.59
2023-05-15T00:12:31.494Z,18.64
2023-05-15T00:14:33.600Z,18.56
2023-05-15T00:16:36.097Z,18.59
2023-05-15T00:18:38.575Z,18.55
2023-05-15T00:20:41.207Z,18.54
2023-05-15T00:22:43.244Z,18.57
2023-05-15T00:24:45.248Z,18.52
2023-05-15T00:26:47.340Z,18.52
2023-05-15T00:28:49.565Z,18.50
2023-05-15T00:30:52.503Z,18.46
2023-05-15T00:32:55.010Z,18.33
2023-05-15T00:34:56.979Z,18.28
2023-05-15T00:37:00.602Z,18.29
2023-05-15T00:39:02.916Z,18.37
2023-05-15T00:41:08.142Z,18.37
2023-05-15T00:43:12.320Z,18.31
2023-05-15T00:45:17.441Z,18.34
2023-05-15T00:47:21.496Z,18.28
2023-05-15T00:49:24.292Z,18.12
2023-05-15T00:51:28.371Z,18.07
2023-05-15T00:53:30.634Z,18.09
2023-05-15T00:55:34.072Z,18.10
2023-05-15T00:57:36.647Z,18.23
2023-05-15T00:59:40.285Z,18.18
2023-05-15T01:01:45.333Z,18.09
2023-05-15T01:03:47.409Z,18.03
2023-05-15T01:05:49.960Z,18.11
2023-05-15T01:08:05.449Z,18.08
2023-05-15T01:10:09.164Z,18.10
2023-05-15T01:12:12.309Z,18.13
2023-05-15T01:14:14.246Z,18.04
2023-05-15T01:16:16.310Z,17.99
2023-05-15T01:18:18.646Z,17.98
2023-05-15T01:20:23.172Z,17.84
2023-05-15T01:22:35.185Z,17.82
2023-05-15T01:24:43.659Z,17.85
2023-05-15T01:26:51.986Z,17.70
2023-05-15T01:29:01.735Z,17.65
2023-05-15T01:31:15.918Z,17.68
2023-05-15T01:33:24.440Z,17.70
2023-05-15T01:35:30.239Z,17.62
2023-05-15T01:37:37.081Z,17.62
2023-05-15T01:39:42.099Z,17.59
2023-05-15T01:41:52.539Z,17.44
2023-05-15T01:44:01.087Z,17.46
2023-05-15T01:46:06.009Z,17.31
2023-05-15T01:48:09.310Z,17.40
2023-05-15T01:50:15.276Z,17.42
2023-05-15T01:52:25.565Z,17.35
2023-05-15T01:54:30.393Z,17.34
2023-05-15T01:56:33.247Z,17.31
2023-05-15T01:58:37.636Z,17.14
2023-05-15T02:00:40.915Z,17.10
2023-05-15T02:02:44.228Z,17.06
2023-05-15T02:04:46.999Z,17.09
2023-05-15T02:06:50.564Z,17.16
2023-05-15T02:08:55.038Z,17.09
2023-05-15T02:11:00.708Z,16.97
2023-05-15T02:13:02.931Z,17.12
2023-05-15T02:15:06.659Z,17.07
2023-05-15T02:17:08.772Z,17.08
2023-05-15T02:19:10.958Z,17.05
2023-05-15T02:21:13.278Z,17.08
2023-05-15T02:23:15.257Z,16.98
2023-05-15T02:25:17.586Z,16.96
2023-05-15T02:27:27.339Z,16.94
2023-05-15T02:29:38.775Z,16.97
2023-05-15T02:31:52.505Z,16.84
2023-05-15T02:34:04.087Z,16.90
2023-05-15T02:36:09.829Z,16.77
2023-05-15T02:38:17.207Z,16.57
2023-05-15T02:40:20.944Z,16.58
2023-05-15T02:42:23.468Z,16.52
2023-05-15T02:44:26.535Z,16.68
2023-05-15T02:46:29.749Z,16.69
2023-05-15T02:48:32.460Z,16.66
2023-05-15T02:50:34.635Z,16.59
2023-05-15T02:52:36.619Z,16.52
2023-05-15T02:54:38.900Z,16.53
2023-05-15T02:56:41.115Z,16.42
2023-05-15T02:58:43.368Z,16.52
2023-05-15T03:00:45.373Z,16.51
2023-05-15T03:02:47.605Z,16.54
2023-05-15T03:04:49.732Z,16.41
2023-05-15T03:06:51.832Z,16.45
2023-05-15T03:08:53.850Z,16.33
2023-05-15T03:10:55.928Z,16.40
2023-05-15T03:12:58.898Z,16.40
2023-05-15T03:15:01.886Z,16.32
2023-05-15T03:17:04.316Z,16.27
2023-05-15T03:19:06.725Z,16.39
2023-05-15T03:21:08.931Z,16.41
2023-05-15T03:23:11.086Z,16.24
2023-05-15T03:25:13.261Z,16.27
2023-05-15T03:27:15.662Z,16.24
2023-05-15T03:29:17.805Z,16.18
2023-05-15T03:31:20.157Z,16.22
2023-05-15T03:33:22.386Z,16.01
2023-05-15T03:35:24.991Z,16.10
2023-05-15T03:37:27.197Z,15.90
2023-05-15T03:39:29.261Z,15.86
2023-05-15T03:41:31.635Z,15.88
2023-05-15T03:43:33.882Z,15.84
2023-05-15T03:45:37.283Z,15.77
2023-05-15T03:47:39.378Z,15.83
2023-05-15T03:49:42.023Z,15.81
2023-05-15T03:51:44.057Z,15.75
2023-05-15T03:53:46.262Z,15.84
2023-05-15T03:55:48.421Z,15.85
2023-05-15T03:57:50.798Z,15.83
2023-05-15T03:59:52.945Z,15.84
2023-05-15T04:02:04.101Z,15.76
2023-05-15T04:04:07.373Z,15.74
2023-05-15T04:06:09.510Z,15.60
2023-05-15T04:08:12.631Z,15.72
2023-05-15T04:10:14.693Z,15.64
2023-05-15T04:12:17.095Z,15.70
2023-05-15T04:14:19.080Z,15.62
2023-05-15T04:16:21.655Z,15.55
2023-05-15T04:18:23.798Z,15.61
2023-05-15T04:20:26.213Z,15.51
2023-05-15T04:22:28.155Z,15.53
2023-05-15T04:24:30.207Z,15.34
2023-05-15T04:26:32.338Z,15.30
2023-05-15T04:28:34.536Z,15.32
2023-05-15T04:30:36.914Z,15.14
2023-05-15T04:32:40.453Z,15.10
2023-05-15T04:34:42.618Z,15.18
2023-05-15T04:36:44.636Z,15.15
2023-05-15T04:38:46.721Z,15.27
2023-05-15T04:40:48.710Z,15.23
2023-05-15T04:42:50.864Z,15.16
2023-05-15T04:44:53.672Z,15.13
2023-05-15T04:46:55.769Z,15.07
2023-05-15T04:48:57.768Z,15.04
2023-05-15T04:50:59.982Z,15.09
2023-05-15T04:53:01.960Z,14.99
2023-05-15T04:55:04.776Z,14.94
2023-05-15T04:57:07.053Z,14.83
2023-05-15T04:59:09.994Z,14.80
2023-05-15T05:01:12.030Z,14.81
2023-05-15T05:03:14.346Z,14.88
2023-05-15T05:05:16.701Z,14.74
2023-05-15T05:07:18.929Z,14.80
2023-05-15T05:09:21.128Z,14.79
2023-05-15T05:11:23.180Z,14.75
2023-05-15T05:13:25.177Z,14.72
2023-05-15T05:15:27.366Z,14.72
2023-05-15T05:17:30.495Z,14.60
2023-05-15T05:19:32.617Z,14.60
2023-05-15T05:21:34.712Z,14.71
2023-05-15T05:23:36.817Z,14.76
2023-05-15T05:25:38.840Z,14.62
2023-05-15T05:27:40.925Z,14.65
2023-05-15T05:29:42.935Z,14.45
2023-05-15T05:31:47.133Z,14.60
2023-05-15T05:33:51.408Z,14.61
2023-05-15T05:35:53.758Z,14.66
2023-05-15T05:37:56.034Z,14.64
2023-05-15T05:39:58.123Z,14.71
2023-05-15T05:42:00.168Z,14.72
2023-05-15T05:44:02.297Z,14.64
2023-05-15T05:46:04.359Z,14.68
2023-05-15T05:48:06.822Z,14.57
2023-05-15T05:50:09.186Z,14.58
2023-05-15T05:52:11.249Z,14.63
2023-05-15T05:54:15.157Z,14.65
2023-05-15T05:56:17.596Z,14.71
2023-05-15T05:58:25.640Z,14.57
2023-05-15T06:00:28.676Z,14.54
2023-05-15T06:02:31.399Z,14.67
2023-05-15T06:04:34.503Z,14.68
2023-05-15T06:06:36.805Z,14.51
2023-05-15T06:08:38.945Z,14.57
2023-05-15T06:10:42.494Z,14.57
2023-05-15T06:12:44.635Z,14.66
2023-05-15T06:14:46.657Z,14.66
2023-05-15T06:16:48.753Z,14.53
2023-05-15T06:18:51.308Z,14.50
2023-05-15T06:20:53.737Z,14.56
2023-05-15T06:22:56.229Z,14.59
2023-05-15T06:25:00.738Z,14.59
2023-05-15T06:27:02.848Z,14.64
2023-05-15T06:29:05.097Z,14.56
2023-05-15T06:31:07.251Z,14.55
2023-05-15T06:33:09.551Z,14.50
2023-05-15T06:35:11.798Z,14.48
2023-05-15T06:37:14.088Z,14.44
2023-05-15T06:39:16.325Z,14.48
2023-05-15T06:41:18.411Z,14.47
2023-05-15T06:43:20.634Z,14.38
2023-05-15T06:45:22.850Z,14.43
2023-05-15T06:47:25.845Z,14.41
2023-05-15T06:49:28.140Z,14.21
2023-05-15T06:51:30.378Z,14.14
2023-05-15T06:53:32.640Z,14.21
2023-05-15T06:55:36.657Z,14.28
2023-05-15T06:57:38.726Z,14.23
2023-05-15T06:59:41.042Z,14.39
2023-05-15T07:01:43.165Z,14.22
2023-05-15T07:03:45.278Z,14.29
2023-05-15T07:05:47.531Z,14.40
2023-05-15T07:07:49.570Z,14.30
2023-05-15T07:09:51.828Z,14.31
2023-05-15T07:11:53.851Z,14.31
2023-05-15T07:13:56.311Z,14.32
2023-05-15T07:15:58.325Z,14.32
2023-05-15T07:18:00.556Z,14.30
2023-05-15T07:20:02.851Z,14.35
2023-05-15T07:22:05.677Z,14.37
2023-05-15T07:24:08.328Z,14.42
2023-05-15T07:26:16.941Z,14.47
2023-05-15T07:28:23.540Z,14.46
2023-05-15T07:30:26.461Z,14.56
2023-05-15T07:32:28.991Z,14.60
2023-05-15T07:34:31.296Z,14.60
2023-05-15T07:36:33.396Z,14.65
2023-05-15T07:38:35.695Z,14.76
2023-05-15T07:40:37.901Z,14.73
2023-05-15T07:42:40.022Z,14.70
2023-05-15T07:44:43.985Z,14.57
2023-05-15T07:46:47.266Z,14.69
2023-05-15T07:49:00.262Z,14.58
2023-05-15T07:51:04.916Z,14.72
2023-05-15T07:53:07.062Z,14.58
2023-05-15T07:55:13.583Z,14.70
2023-05-15T07:57:15.836Z,14.65
2023-05-15T07:59:17.973Z,14.67
2023-05-15T08:01:20.173Z,14.67
2023-05-15T08:03:22.619Z,14.71
2023-05-15T08:05:25.142Z,14.87
2023-05-15T08:07:28.130Z,14.86
2023-05-15T08:09:30.563Z,14.91
2023-05-15T08:11:32.700Z,14.98
2023-05-15T08:13:34.789Z,14.91
2023-05-15T08:15:36.843Z,15.00
2023-05-15T08:17:39.028Z,15.08
2023-05-15T08:19:41.746Z,14.95
2023-05-15T08:21:44.639Z,14.93
2023-05-15T08:23:47.053Z,14.90
2023-05-15T08:25:49.111Z,15.07
2023-05-15T08:27:52.010Z,15.21
2023-05-15T08:29:55.110Z,15.21
2023-05-15T08:31:57.154Z,15.21
2023-05-15T08:34:00.177Z,15.19
2023-05-15T08:36:02.420Z,15.30
2023-05-15T08:38:05.507Z,15.39
2023-05-15T08:40:08.568Z,15.31
2023-05-15T08:42:13.474Z,15.36
2023-05-15T08:44:15.991Z,15.36
2023-05-15T08:46:18.688Z,15.33
2023-05-15T08:48:25.487Z,15.25
2023-05-15T08:50:28.904Z,15.23
2023-05-15T08:52:33.099Z,15.25
2023-05-15T08:54:35.752Z,15.33
2023-05-15T08:56:38.275Z,15.26
2023-05-15T08:58:40.574Z,15.50
2023-05-15T09:00:43.978Z,15.56
2023-05-15T09:02:46.158Z,15.63
2023-05-15T09:04:49.221Z,15.66
2023-05-15T09:06:52.010Z,15.73
2023-05-15T09:08:57.243Z,15.81
2023-05-15T09:11:00.945Z,15.80
2023-05-15T09:13:04.606Z,15.90
2023-05-15T09:15:11.090Z,15.89
2023-05-15T09:17:13.472Z,15.91
2023-05-15T09:19:16.236Z,15.88
2023-05-15T09:21:24.486Z,16.07
2023-05-15T09:23:28.307Z,15.90
2023-05-15T09:25:38.414Z,15.95
2023-05-15T09:27:43.745Z,16.00
2023-05-15T09:29:46.257Z,16.02
2023-05-15T09:31:48.767Z,16.01
2023-05-15T09:34:01.878Z,16.07
2023-05-15T09:36:05.751Z,16.10
2023-05-15T09:38:10.987Z,16.24
2023-05-15T09:40:14.158Z,16.24
2023-05-15T09:42:16.361Z,16.25
2023-05-15T09:44:21.996Z,16.37
2023-05-15T09:46:24.656Z,16.52
2023-05-15T09:48:28.987Z,16.59
2023-05-15T09:50:34.695Z,16.48
2023-05-15T09:52:36.879Z,16.64
2023-05-15T09:54:39.161Z,16.65
2023-05-15T09:56:43.496Z,16.80
2023-05-15T09:58:51.886Z,16.63
2023-05-15T10:00:54.963Z,16.93
2023-05-15T10:02:59.277Z,16.93
2023-05-15T10:05:02.037Z,17.07
2023-05-15T10:07:08.071Z,17.20
2023-05-15T10:09:11.777Z,17.27
2023-05-15T10:11:14.021Z,17.20
2023-05-15T10:13:16.248Z,17.38
2023-05-15T10:15:20.540Z,17.39
2023-05-15T10:17:23.609Z,17.39
2023-05-15T10:19:28.209Z,17.60
2023-05-15T10:21:34.380Z,17.47
2023-05-15T10:23:38.348Z,17.59
2023-05-15T10:25:46.950Z,17.71
2023-05-15T10:27:51.743Z,17.74
2023-05-15T10:29:55.520Z,17.64
2023-05-15T10:32:01.171Z,17.81
2023-05-15T10:34:05.131Z,17.87
2023-05-15T10:36:08.977Z,18.08
2023-05-15T10:38:13.124Z,17.94
2023-05-15T10:40:17.559Z,18.08
2023-05-15T10:42:20.257Z,18.17
2023-05-15T10:44:29.078Z,18.26
2023-05-15T10:46:34.908Z,18.01
2023-05-15T10:48:37.929Z,18.06
2023-05-15T10:50:40.643Z,18.33
2023-05-15T10:52:43.156Z,18.21
2023-05-15T10:54:45.825Z,18.31
2023-05-15T10:56:48.895Z,18.57
2023-05-15T10:58:54.570Z,18.57
2023-05-15T11:00:58.117Z,18.58
2023-05-15T11:03:02.318Z,18.51
2023-05-15T11:05:05.621Z,18.29
2023-05-15T11:07:14.108Z,18.04
2023-05-15T11:09:22.760Z,18.28
2023-05-15T11:11:48.130Z,18.31
2023-05-15T11:13:56.772Z,18.49
2023-05-15T11:15:59.381Z,18.45
2023-05-15T11:18:05.980Z,18.66
2023-05-15T11:20:09.044Z,18.70
2023-05-15T11:22:16.042Z,18.87
2023-05-15T11:24:18.378Z,18.93
2023-05-15T11:26:33.467Z,18.86
2023-05-15T11:28:43.973Z,18.72
2023-05-15T11:30:53.807Z,18.75
2023-05-15T11:33:00.968Z,18.80
2023-05-15T11:35:04.308Z,18.79
2023-05-15T11:37:17.943Z,18.96
2023-05-15T11:39:25.139Z,18.90
2023-05-15T11:41:32.422Z,18.99
2023-05-15T11:43:36.937Z,18.87
2023-05-15T11:45:41.155Z,18.97
2023-05-15T11:47:45.711Z,19.24
2023-05-15T11:49:50.028Z,19.23
2023-05-15T11:51:52.606Z,19.28
2023-05-15T11:53:56.351Z,19.07
2023-05-15T11:55:59.513Z,19.12
2023-05-15T11:58:02.708Z,18.91
2023-05-15T12:00:06.752Z,18.48
2023-05-15T12:02:09.183Z,18.42
2023-05-15T12:04:16.559Z,18.37
2023-05-15T12:06:19.389Z,18.62
2023-05-15T12:08:22.071Z,18.61
2023-05-15T12:10:24.863Z,18.73
2023-05-15T12:12:28.872Z,18.88
2023-05-15T12:14:32.462Z,18.90
2023-05-15T12:16:36.793Z,19.04
2023-05-15T12:18:39.310Z,18.89
2023-05-15T12:20:46.201Z,19.20
2023-05-15T12:22:49.193Z,19.36
2023-05-15T12:24:51.690Z,19.68
2023-05-15T12:26:55.411Z,19.74
2023-05-15T12:28:59.863Z,19.91
2023-05-15T12:31:17.950Z,20.23
2023-05-15T12:33:20.560Z,20.25
2023-05-15T12:35:22.909Z,20.19
2023-05-15T12:37:25.686Z,20.15
2023-05-15T12:39:28.157Z,19.99
2023-05-15T12:41:30.901Z,19.60
2023-05-15T12:43:33.671Z,19.36
2023-05-15T12:45:40.038Z,19.35
2023-05-15T12:47:44.077Z,19.48
2023-05-15T12:49:46.702Z,19.70
2023-05-15T12:51:49.683Z,19.65
2023-05-15T12:53:55.255Z,19.77
2023-05-15T12:55:57.971Z,19.94
2023-05-15T12:58:02.964Z,19.89
2023-05-15T13:00:06.028Z,19.72
2023-05-15T13:02:12.725Z,19.32
2023-05-15T13:04:17.114Z,19.28
2023-05-15T13:06:19.860Z,19.19
2023-05-15T13:08:22.308Z,19.30
2023-05-15T13:10:26.166Z,19.04
2023-05-15T13:12:35.261Z,18.87
2023-05-15T13:14:37.471Z,18.89
2023-05-15T13:16:43.277Z,19.00
2023-05-15T13:18:46.116Z,19.24
2023-05-15T13:21:00.926Z,19.41
2023-05-15T13:23:03.844Z,19.64
2023-05-15T13:25:07.359Z,19.23
2023-05-15T13:27:09.825Z,19.30
2023-05-15T13:29:12.306Z,19.39
2023-05-15T13:31:14.847Z,19.35
2023-05-15T13:33:17.567Z,19.15
2023-05-15T13:35:20.632Z,19.08
2023-05-15T13:37:23.184Z,19.17
2023-05-15T13:39:25.663Z,19.06
2023-05-15T13:41:28.116Z,19.15
2023-05-15T13:43:30.956Z,19.25
2023-05-15T13:45:33.767Z,19.57
2023-05-15T13:47:37.244Z,19.78
2023-05-15T13:49:39.588Z,19.96
2023-05-15T13:51:42.080Z,20.27
2023-05-15T13:53:45.211Z,20.53
2023-05-15T13:55:48.003Z,20.66
2023-05-15T13:57:50.674Z,20.68
2023-05-15T13:59:53.279Z,20.94
2023-05-15T14:01:55.833Z,20.95
2023-05-15T14:03:58.091Z,20.94
2023-05-15T14:06:01.183Z,20.66
2023-05-15T14:08:04.378Z,20.53
2023-05-15T14:10:08.280Z,20.64
2023-05-15T14:12:11.733Z,20.38
2023-05-15T14:14:14.236Z,20.38
2023-05-15T14:16:16.913Z,20.54
2023-05-15T14:18:19.669Z,20.75
2023-05-15T14:20:22.409Z,21.09
2023-05-15T14:22:25.501Z,21.37
2023-05-15T14:24:27.830Z,21.57
2023-05-15T14:26:30.304Z,21.88
2023-05-15T14:28:33.278Z,21.76
2023-05-15T14:30:35.988Z,21.51
2023-05-15T14:32:39.708Z,21.43
2023-05-15T14:34:42.191Z,21.26
2023-05-15T14:36:44.934Z,20.88
2023-05-15T14:38:49.449Z,20.71
2023-05-15T14:41:01.874Z,20.61
2023-05-15T14:43:04.625Z,20.23
2023-05-15T14:45:08.309Z,20.01
2023-05-15T14:47:13.985Z,19.85
2023-05-15T14:49:16.628Z,20.02
2023-05-15T14:51:19.995Z,20.01
2023-05-15T14:53:23.640Z,19.87
2023-05-15T14:55:26.402Z,20.22
2023-05-15T14:57:29.652Z,19.93
2023-05-15T14:59:32.188Z,20.20
2023-05-15T15:01:34.719Z,20.66
2023-05-15T15:03:37.921Z,20.99
2023-05-15T15:05:40.368Z,21.23
2023-05-15T15:07:49.191Z,21.31
2023-05-15T15:09:51.627Z,21.33
2023-05-15T15:11:54.483Z,21.53
2023-05-15T15:13:57.354Z,21.01
2023-05-15T15:16:00.144Z,20.81
2023-05-15T15:18:03.269Z,20.88
2023-05-15T15:20:06.786Z,20.53
2023-05-15T15:22:09.547Z,20.58
2023-05-15T15:24:12.546Z,20.31
2023-05-15T15:26:16.250Z,20.07
2023-05-15T15:28:19.044Z,19.86
2023-05-15T15:30:22.668Z,20.07
2023-05-15T15:32:25.883Z,20.18
2023-05-15T15:34:28.353Z,20.28
2023-05-15T15:36:31.812Z,20.51
2023-05-15T15:38:34.398Z,20.71
2023-05-15T15:40:36.792Z,20.64
2023-05-15T15:42:39.771Z,20.39
2023-05-15T15:44:43.125Z,20.41
2023-05-15T15:46:46.910Z,20.44
2023-05-15T15:48:50.022Z,20.19
2023-05-15T15:50:59.971Z,20.12
2023-05-15T15:53:02.573Z,19.68
2023-05-15T15:55:05.767Z,20.08
2023-05-15T15:57:08.165Z,20.13
2023-05-15T15:59:10.406Z,20.23
2023-05-15T16:01:19.770Z,20.59
2023-05-15T16:03:22.586Z,20.64
2023-05-15T16:05:25.245Z,20.70
2023-05-15T16:07:27.572Z,20.93
2023-05-15T16:09:30.328Z,20.77
2023-05-15T16:11:33.275Z,20.80
2023-05-15T16:13:35.698Z,20.58
2023-05-15T16:15:38.228Z,20.62
2023-05-15T16:17:41.405Z,20.49
2023-05-15T16:19:44.336Z,20.56
2023-05-15T16:21:48.701Z,20.51
2023-05-15T16:23:51.702Z,20.36
2023-05-15T16:25:54.235Z,20.42
2023-05-15T16:27:56.797Z,20.31
2023-05-15T16:29:59.369Z,20.22
2023-05-15T16:32:01.926Z,20.11
2023-05-15T16:34:05.129Z,20.08
2023-05-15T16:36:07.731Z,19.95
2023-05-15T16:38:10.410Z,19.66
2023-05-15T16:40:13.652Z,19.90
2023-05-15T16:42:17.185Z,19.61
2023-05-15T16:44:19.932Z,19.58
2023-05-15T16:46:23.092Z,19.70
2023-05-15T16:48:28.030Z,19.58
2023-05-15T16:50:32.951Z,19.36
2023-05-15T16:52:36.318Z,19.15
2023-05-15T16:54:41.851Z,19.20
2023-05-15T16:56:44.563Z,19.09
2023-05-15T16:58:47.570Z,18.97
2023-05-15T17:00:52.251Z,18.98
2023-05-15T17:02:55.139Z,18.94
2023-05-15T17:04:57.759Z,18.84
2023-05-15T17:07:00.318Z,18.80
2023-05-15T17:09:02.756Z,18.74
2023-05-15T17:11:13.048Z,18.71
2023-05-15T17:13:20.529Z,18.55
2023-05-15T17:15:24.634Z,18.58
2023-05-15T17:17:29.722Z,18.55
2023-05-15T17:19:36.488Z,18.70
2023-05-15T17:21:40.920Z,18.71
2023-05-15T17:23:43.844Z,18.66
2023-05-15T17:25:46.861Z,18.62
2023-05-15T17:27:49.951Z,18.70
2023-05-15T17:29:53.338Z,18.58
2023-05-15T17:31:56.753Z,18.58
2023-05-15T17:34:00.709Z,18.79
2023-05-15T17:36:03.591Z,18.88
2023-05-15T17:38:06.265Z,18.65
2023-05-15T17:40:09.603Z,18.77
2023-05-15T17:42:12.546Z,18.68
2023-05-15T17:44:14.739Z,18.72
2023-05-15T17:46:17.203Z,18.73
2023-05-15T17:48:20.874Z,18.61
2023-05-15T17:50:23.390Z,18.61
2023-05-15T17:52:25.750Z,18.66
2023-05-15T17:54:28.133Z,18.71
2023-05-15T17:56:30.612Z,18.70
2023-05-15T17:58:32.887Z,18.69
2023-05-15T18:00:35.409Z,18.67
2023-05-15T18:02:37.695Z,18.42
2023-05-15T18:04:40.134Z,18.35
2023-05-15T18:06:43.085Z,18.38
2023-05-15T18:08:45.936Z,18.30
2023-05-15T18:10:57.162Z,18.26
2023-05-15T18:13:00.001Z,18.26
2023-05-15T18:15:02.284Z,18.01
2023-05-15T18:17:04.938Z,18.27
2023-05-15T18:19:08.084Z,18.36
2023-05-15T18:21:10.511Z,18.42
2023-05-15T18:23:12.861Z,18.45
2023-05-15T18:25:15.243Z,18.48
2023-05-15T18:27:17.702Z,18.45
2023-05-15T18:29:20.375Z,18.35
2023-05-15T18:31:22.652Z,18.41
2023-05-15T18:33:25.162Z,18.44
2023-05-15T18:35:27.866Z,18.38
2023-05-15T18:37:30.529Z,18.25
2023-05-15T18:39:32.848Z,18.32
2023-05-15T18:41:35.074Z,18.17
2023-05-15T18:43:37.551Z,18.21
2023-05-15T18:45:40.111Z,18.31
2023-05-15T18:47:43.220Z,18.15
2023-05-15T18:49:46.107Z,18.28
2023-05-15T18:51:48.527Z,18.30
2023-05-15T18:53:51.088Z,18.10
2023-05-15T18:55:53.553Z,18.17
2023-05-15T18:57:56.168Z,18.12
2023-05-15T18:59:58.431Z,18.05
2023-05-15T19:02:00.862Z,18.00
2023-05-15T19:04:04.972Z,17.89
2023-05-15T19:06:07.342Z,17.92
2023-05-15T19:08:09.619Z,17.88
2023-05-15T19:10:12.291Z,17.85
2023-05-15T19:12:14.569Z,17.81
2023-05-15T19:14:18.192Z,17.74
2023-05-15T19:16:20.783Z,17.77
2023-05-15T19:18:24.005Z,17.72
2023-05-15T19:20:26.966Z,17.68
2023-05-15T19:22:29.895Z,17.64
2023-05-15T19:24:33.492Z,17.56
2023-05-15T19:26:36.264Z,17.56
2023-05-15T19:28:38.855Z,17.28
2023-05-15T19:30:44.829Z,17.39
2023-05-15T19:32:47.531Z,17.42
2023-05-15T19:34:50.454Z,17.35
2023-05-15T19:36:53.376Z,17.39
2023-05-15T19:38:56.316Z,17.32
2023-05-15T19:40:58.872Z,16.96
2023-05-15T19:43:01.318Z,17.14
2023-05-15T19:45:03.875Z,17.05
2023-05-15T19:47:06.436Z,17.02
2023-05-15T19:49:11.841Z,17.00
2023-05-15T19:51:14.873Z,17.05
2023-05-15T19:53:17.074Z,17.08
2023-05-15T19:55:19.424Z,16.98
2023-05-15T19:57:21.704Z,17.01
2023-05-15T19:59:23.955Z,16.91
2023-05-15T20:01:26.422Z,16.94
2023-05-15T20:03:33.398Z,16.92
2023-05-15T20:05:40.291Z,16.87
2023-05-15T20:07:43.481Z,16.87
2023-05-15T20:09:45.898Z,16.84
2023-05-15T20:11:48.182Z,16.83
2023-05-15T20:13:50.690Z,16.82
2023-05-15T20:15:57.654Z,16.75
2023-05-15T20:18:00.230Z,16.80
2023-05-15T20:20:02.947Z,16.69
2023-05-15T20:22:05.655Z,16.79
2023-05-15T20:24:08.445Z,16.75
2023-05-15T20:26:10.788Z,16.69
2023-05-15T20:28:13.058Z,16.75
2023-05-15T20:30:15.874Z,16.69
2023-05-15T20:32:18.537Z,16.70
2023-05-15T20:34:22.129Z,16.65
2023-05-15T20:36:25.886Z,16.66
2023-05-15T20:38:28.711Z,16.59
2023-05-15T20:40:31.224Z,16.56
2023-05-15T20:42:33.338Z,16.53
2023-05-15T20:44:37.002Z,16.48
2023-05-15T20:46:40.363Z,16.38
2023-05-15T20:48:42.757Z,16.42
2023-05-15T20:50:47.010Z,16.36
2023-05-15T20:52:49.372Z,16.35
2023-05-15T20:54:51.680Z,16.39
2023-05-15T20:56:53.816Z,16.34
2023-05-15T20:58:59.518Z,16.32
2023-05-15T21:01:02.262Z,16.32
2023-05-15T21:03:04.583Z,16.13
2023-05-15T21:05:07.976Z,16.20
2023-05-15T21:07:10.539Z,16.05
2023-05-15T21:09:16.843Z,16.13
2023-05-15T21:11:19.210Z,16.09
2023-05-15T21:13:21.397Z,15.99
2023-05-15T21:15:23.471Z,16.06
2023-05-15T21:17:25.655Z,16.02
2023-05-15T21:19:27.913Z,15.99
2023-05-15T21:21:30.646Z,15.97
2023-05-15T21:23:33.877Z,15.97
2023-05-15T21:25:36.450Z,15.97
2023-05-15T21:27:38.745Z,15.91
2023-05-15T21:29:40.913Z,15.95
2023-05-15T21:31:43.579Z,15.87
2023-05-15T21:33:45.979Z,15.97
2023-05-15T21:35:48.991Z,15.90
2023-05-15T21:37:51.846Z,15.88
2023-05-15T21:39:54.017Z,15.88
2023-05-15T21:41:56.278Z,15.86
2023-05-15T21:43:58.528Z,15.81
2023-05-15T21:46:00.826Z,15.79
2023-05-15T21:48:03.196Z,15.81
2023-05-15T21:50:06.485Z,15.75
2023-05-15T21:52:08.560Z,15.71
2023-05-15T21:54:10.653Z,15.73
2023-05-15T21:56:12.847Z,15.71
2023-05-15T21:58:14.853Z,15.55
2023-05-15T22:00:17.461Z,15.55
2023-05-15T22:02:19.663Z,15.57
2023-05-15T22:04:21.783Z,15.42
2023-05-15T22:06:23.857Z,15.46
2023-05-15T22:08:26.204Z,15.39
2023-05-15T22:10:28.487Z,15.29
2023-05-15T22:12:32.360Z,15.36
2023-05-15T22:14:35.107Z,15.36
2023-05-15T22:16:37.531Z,15.37
2023-05-15T22:18:39.923Z,15.39
2023-05-15T22:20:45.890Z,15.31
2023-05-15T22:22:48.063Z,15.33
2023-05-15T22:24:50.165Z,15.34
2023-05-15T22:26:52.245Z,15.34
2023-05-15T22:28:56.156Z,15.37
2023-05-15T22:30:58.270Z,15.21
2023-05-15T22:33:00.406Z,15.26
2023-05-15T22:35:02.866Z,15.24
2023-05-15T22:37:05.182Z,15.13
2023-05-15T22:39:08.125Z,15.11
2023-05-15T22:41:10.241Z,15.10
2023-05-15T22:43:12.311Z,15.04
2023-05-15T22:45:15.449Z,15.10
2023-05-15T22:47:18.645Z,15.06
2023-05-15T22:49:25.653Z,15.10
2023-05-15T22:51:29.659Z,15.10
2023-05-15T22:53:31.867Z,15.05
2023-05-15T22:55:33.930Z,15.06
2023-05-15T22:57:36.091Z,14.98
2023-05-15T22:59:38.073Z,15.03
2023-05-15T23:01:40.247Z,14.92
2023-05-15T23:03:42.340Z,14.99
2023-05-15T23:05:45.439Z,14.95
2023-05-15T23:07:47.652Z,14.98
2023-05-15T23:09:49.667Z,14.97
2023-05-15T23:11:51.897Z,14.96
2023-05-15T23:13:54.405Z,14.98
2023-05-15T23:15:56.392Z,15.01
2023-05-15T23:17:58.498Z,14.97
2023-05-15T23:20:00.953Z,14.91
2023-05-15T23:22:03.378Z,14.96
2023-05-15T23:24:05.754Z,14.90
2023-05-15T23:26:07.683Z,14.86
2023-05-15T23:28:09.895Z,14.83
2023-05-15T23:30:12.423Z,14.68
2023-05-15T23:32:14.449Z,14.77
2023-05-15T23:34:16.449Z,14.60
2023-05-15T23:36:18.487Z,14.70
2023-05-15T23:38:22.457Z,14.61
2023-05-15T23:40:24.601Z,14.68
2023-05-15T23:42:26.676Z,14.67
2023-05-15T23:44:28.673Z,14.58
2023-05-15T23:46:30.795Z,14.56
2023-05-15T23:48:33.789Z,14.52
2023-05-15T23:50:36.029Z,14.56
2023-05-15T23:52:38.303Z,14.53
2023-05-15T23:54:40.522Z,14.55
2023-05-15T23:56:42.813Z,14.49
2023-05-15T23:58:44.967Z,14.37
